createdAt,value
2018-12-03T00:01:26.092Z,12.54
2018-12-03T00:03:56.434Z,12.63
2018-12-03T00:06:25.315Z,12.68
2018-12-03T00:08:54.345Z,12.68
2018-12-03T00:11:23.263Z,12.65
2018-12-03T00:13:52.257Z,12.64
2018-12-03T00:16:21.244Z,12.67
2018-12-03T00:18:50.389Z,12.63
2018-12-03T00:21:19.449Z,12.60
2018-12-03T00:23:48.468Z,12.64
2018-12-03T00:26:17.506Z,12.62
2018-12-03T00:28:46.517Z,12.63
2018-12-03T00:31:15.376Z,12.62
2018-12-03T00:33:44.528Z,12.65
2018-12-03T00:36:13.768Z,12.65
2018-12-03T00:38:42.834Z,12.65
2018-12-03T00:41:11.797Z,12.66
2018-12-03T00:43:40.836Z,12.68
2018-12-03T00:46:09.997Z,12.69
2018-12-03T00:48:39.035Z,12.69
2018-12-03T00:51:07.944Z,12.68
2018-12-03T00:53:37.025Z,12.68
2018-12-03T00:56:06.352Z,12.73
2018-12-03T00:58:35.229Z,12.77
2018-12-03T01:01:04.341Z,12.78
2018-12-03T01:03:33.352Z,12.80
2018-12-03T01:06:02.561Z,12.83
2018-12-03T01:08:31.656Z,12.81
2018-12-03T01:11:00.737Z,12.76
2018-12-03T01:13:29.869Z,12.75
2018-12-03T01:15:58.996Z,12.72
2018-12-03T01:18:28.621Z,12.70
2018-12-03T01:20:57.666Z,12.69
2018-12-03T01:23:26.885Z,12.70
2018-12-03T01:25:58.086Z,12.69
2018-12-03T01:28:27.419Z,12.73
2018-12-03T01:30:56.340Z,12.72
2018-12-03T01:33:25.558Z,12.75
2018-12-03T01:37:45.747Z,12.91
2018-12-03T01:40:19.935Z,12.76
2018-12-03T01:42:49.881Z,12.78
2018-12-03T01:45:24.768Z,12.80
2018-12-03T01:47:54.554Z,12.75
2018-12-03T01:50:28.587Z,12.76
2018-12-03T01:53:00.007Z,12.71
2018-12-03T01:55:33.957Z,12.64
2018-12-03T01:58:05.004Z,12.70
2018-12-03T02:00:42.952Z,12.67
2018-12-03T02:03:14.318Z,12.75
2018-12-03T02:05:47.677Z,12.79
2018-12-03T02:08:19.027Z,12.77
2018-12-03T02:10:52.186Z,12.82
2018-12-03T02:13:23.740Z,12.88
2018-12-03T02:15:57.751Z,12.94
2018-12-03T02:18:30.713Z,12.86
2018-12-03T02:21:05.155Z,12.83
2018-12-03T02:23:36.957Z,12.84
2018-12-03T02:26:10.616Z,12.82
2018-12-03T02:28:41.958Z,12.79
2018-12-03T02:31:15.854Z,12.79
2018-12-03T02:33:47.352Z,12.84
2018-12-03T02:36:21.331Z,12.87
2018-12-03T02:38:52.422Z,12.87
2018-12-03T02:41:25.981Z,12.84
2018-12-03T02:43:57.182Z,12.88
2018-12-03T02:46:29.711Z,12.85
2018-12-03T02:49:01.491Z,12.96
2018-12-03T02:51:36.234Z,13.01
2018-12-03T02:54:07.685Z,13.04
2018-12-03T02:56:39.859Z,13.01
2018-12-03T02:59:11.125Z,12.94
2018-12-03T03:01:45.152Z,12.87
2018-12-03T03:04:16.452Z,12.77
2018-12-03T03:06:49.800Z,12.78
2018-12-03T03:09:19.885Z,12.73
2018-12-03T03:11:53.393Z,12.74
2018-12-03T03:14:26.069Z,12.69
2018-12-03T03:17:01.221Z,12.63
2018-12-03T03:19:32.612Z,12.61
2018-12-03T03:22:06.964Z,12.61
2018-12-03T03:24:38.416Z,12.62
2018-12-03T03:27:15.185Z,12.72
2018-12-03T03:29:49.969Z,12.69
2018-12-03T03:32:23.966Z,12.78
2018-12-03T03:34:55.287Z,12.86
2018-12-03T03:37:31.662Z,12.87
2018-12-03T03:40:02.977Z,12.87
2018-12-03T03:42:36.194Z,12.85
2018-12-03T03:45:05.927Z,12.84
2018-12-03T03:47:39.598Z,12.80
2018-12-03T03:50:10.847Z,12.81
2018-12-03T03:52:43.934Z,12.87
2018-12-03T03:55:15.252Z,12.75
2018-12-03T03:57:53.541Z,12.76
2018-12-03T04:00:24.712Z,12.91
2018-12-03T04:02:58.561Z,12.87
2018-12-03T04:05:29.998Z,12.83
2018-12-03T04:08:03.133Z,12.84
2018-12-03T04:10:34.652Z,12.80
2018-12-03T04:13:06.959Z,12.76
2018-12-03T04:15:38.661Z,12.77
2018-12-03T04:18:12.311Z,12.76
2018-12-03T04:20:43.714Z,12.70
2018-12-03T04:23:18.232Z,12.64
2018-12-03T04:25:48.025Z,12.61
2018-12-03T04:28:25.252Z,12.52
2018-12-03T04:30:55.096Z,12.51
2018-12-03T04:33:27.183Z,12.46
2018-12-03T04:35:58.810Z,12.41
2018-12-03T04:38:32.810Z,12.37
2018-12-03T04:41:04.205Z,12.30
2018-12-03T04:43:37.554Z,12.29
2018-12-03T04:46:08.561Z,12.36
2018-12-03T04:48:42.534Z,12.28
2018-12-03T04:51:14.086Z,12.27
2018-12-03T04:53:47.809Z,12.20
2018-12-03T04:58:46.342Z,12.14
2018-12-03T05:01:20.133Z,12.13
2018-12-03T05:03:51.313Z,12.20
2018-12-03T05:06:24.771Z,12.18
2018-12-03T05:08:58.949Z,12.17
2018-12-03T05:11:32.590Z,12.27
2018-12-03T05:14:09.947Z,12.30
2018-12-03T05:16:42.527Z,12.29
2018-12-03T05:19:16.653Z,12.39
2018-12-03T05:21:50.549Z,12.36
2018-12-03T05:24:24.230Z,12.35
2018-12-03T05:26:57.827Z,12.43
2018-12-03T05:29:31.872Z,12.45
2018-12-03T05:32:05.259Z,12.48
2018-12-03T05:34:39.143Z,12.58
2018-12-03T05:37:14.227Z,12.57
2018-12-03T05:39:48.434Z,12.55
2018-12-03T05:42:22.057Z,12.49
2018-12-03T05:44:56.103Z,12.54
2018-12-03T05:47:29.888Z,12.53
2018-12-03T05:50:04.596Z,12.51
2018-12-03T05:52:38.425Z,12.55
2018-12-03T05:55:12.676Z,12.63
2018-12-03T05:57:46.863Z,12.62
2018-12-03T06:00:22.510Z,12.61
2018-12-03T06:02:56.137Z,12.53
2018-12-03T06:05:29.711Z,12.45
2018-12-03T06:08:03.619Z,12.44
2018-12-03T06:10:37.650Z,12.49
2018-12-03T06:13:11.059Z,12.51
2018-12-03T06:15:44.410Z,12.43
2018-12-03T06:18:17.596Z,12.38
2018-12-03T06:20:51.535Z,12.25
2018-12-03T06:23:25.172Z,12.20
2018-12-03T06:25:58.813Z,12.17
2018-12-03T06:28:32.523Z,12.23
2018-12-03T06:31:04.631Z,12.04
2018-12-03T06:33:42.583Z,11.90
2018-12-03T06:36:16.573Z,11.98
2018-12-03T06:38:50.216Z,11.99
2018-12-03T06:41:23.635Z,11.90
2018-12-03T06:43:57.000Z,11.88
2018-12-03T06:46:26.961Z,11.81
2018-12-03T06:49:00.657Z,11.85
2018-12-03T06:53:59.364Z,11.83
2018-12-03T06:56:32.518Z,11.88
2018-12-03T06:59:01.096Z,11.84
2018-12-03T07:01:34.839Z,11.82
2018-12-03T07:04:08.310Z,11.85
2018-12-03T07:06:42.722Z,11.89
2018-12-03T07:09:15.988Z,11.97
2018-12-03T07:11:49.642Z,11.98
2018-12-03T07:14:22.905Z,11.96
2018-12-03T07:16:56.162Z,11.99
2018-12-03T07:19:30.123Z,11.98
2018-12-03T07:22:02.336Z,12.02
2018-12-03T07:24:35.216Z,12.06
2018-12-03T07:27:09.598Z,12.14
2018-12-03T07:29:43.408Z,12.22
2018-12-03T07:32:18.058Z,12.19
2018-12-03T07:34:52.013Z,12.18
2018-12-03T07:37:25.378Z,12.18
2018-12-03T07:39:59.220Z,12.06
2018-12-03T07:42:35.571Z,11.93
2018-12-03T07:45:22.964Z,11.81
2018-12-03T07:47:56.623Z,11.84
2018-12-03T07:50:30.957Z,11.72
2018-12-03T07:53:04.918Z,11.74
2018-12-03T07:55:38.660Z,11.65
2018-12-03T07:58:18.517Z,11.55
2018-12-03T08:00:56.563Z,11.56
2018-12-03T08:03:30.418Z,11.64
2018-12-03T08:06:02.985Z,11.71
2018-12-03T08:08:38.169Z,11.65
2018-12-03T08:11:17.358Z,11.67
2018-12-03T08:13:50.692Z,11.69
2018-12-03T08:16:24.062Z,11.66
2018-12-03T08:19:02.098Z,11.53
2018-12-03T08:21:35.933Z,11.51
2018-12-03T08:24:14.207Z,11.74
2018-12-03T08:26:47.432Z,11.84
2018-12-03T08:29:20.914Z,11.87
2018-12-03T08:31:54.639Z,11.92
2018-12-03T08:34:31.410Z,11.96
2018-12-03T08:37:05.403Z,11.99
2018-12-03T08:39:41.658Z,12.09
2018-12-03T08:42:19.453Z,12.14
2018-12-03T08:44:53.025Z,12.24
2018-12-03T08:47:29.676Z,12.19
2018-12-03T08:50:09.440Z,12.27
2018-12-03T08:52:41.550Z,12.13
2018-12-03T08:55:15.023Z,12.23
2018-12-03T08:57:48.990Z,12.27
2018-12-03T09:00:32.052Z,12.60
2018-12-03T09:03:18.985Z,12.86
2018-12-03T09:05:53.391Z,12.99
2018-12-03T09:08:27.445Z,12.96
2018-12-03T09:11:04.620Z,12.93
2018-12-03T09:13:41.264Z,12.99
2018-12-03T09:16:19.913Z,12.82
2018-12-03T09:18:53.800Z,12.73
2018-12-03T09:21:27.686Z,12.64
2018-12-03T09:24:03.770Z,12.70
2018-12-03T09:26:41.319Z,12.86
2018-12-03T09:31:41.378Z,12.70
2018-12-03T09:34:14.633Z,12.66
2018-12-03T09:36:48.201Z,12.52
2018-12-03T09:39:21.956Z,12.49
2018-12-03T09:41:55.796Z,12.53
2018-12-03T09:44:32.715Z,12.53
2018-12-03T09:47:07.632Z,12.69
2018-12-03T09:49:41.016Z,12.83
2018-12-03T09:52:14.950Z,12.77
2018-12-03T09:54:49.097Z,12.79
2018-12-03T09:57:23.122Z,12.82
2018-12-03T09:59:56.695Z,12.80
2018-12-03T10:02:30.386Z,12.77
2018-12-03T10:05:04.253Z,12.79
2018-12-03T10:07:38.073Z,12.92
2018-12-03T10:10:16.445Z,13.02
2018-12-03T10:12:53.001Z,13.02
2018-12-03T10:15:30.277Z,13.15
2018-12-03T10:18:04.442Z,13.26
2018-12-03T10:20:42.181Z,13.30
2018-12-03T10:23:16.791Z,13.40
2018-12-03T10:25:51.243Z,13.44
2018-12-03T10:28:21.023Z,13.44
2018-12-03T10:30:56.441Z,13.47
2018-12-03T10:33:26.686Z,13.51
2018-12-03T10:36:01.241Z,13.38
2018-12-03T10:38:32.654Z,13.35
2018-12-03T10:41:32.895Z,13.36
2018-12-03T10:44:03.992Z,13.36
2018-12-03T10:46:37.908Z,13.35
2018-12-03T10:51:38.229Z,13.36
2018-12-03T10:54:12.232Z,13.30
2018-12-03T10:56:46.239Z,13.33
2018-12-03T10:59:27.369Z,13.22
2018-12-03T11:02:17.962Z,13.29
2018-12-03T11:05:06.591Z,13.35
2018-12-03T11:07:40.390Z,13.41
2018-12-03T11:10:11.723Z,13.45
2018-12-03T11:12:54.391Z,13.43
2018-12-03T11:15:25.795Z,13.37
2018-12-03T11:18:03.537Z,13.41
2018-12-03T11:20:35.592Z,13.45
2018-12-03T11:23:09.797Z,13.60
2018-12-03T11:25:41.105Z,13.38
2018-12-03T11:28:17.126Z,13.32
2018-12-03T11:30:48.325Z,13.36
2018-12-03T11:33:29.583Z,13.38
2018-12-03T11:36:00.953Z,13.55
2018-12-03T11:39:29.205Z,13.76
2018-12-03T11:44:29.793Z,14.07
2018-12-03T11:47:03.556Z,14.00
2018-12-03T11:49:37.933Z,13.79
2018-12-03T11:52:11.643Z,13.83
2018-12-03T11:54:45.490Z,13.75
2018-12-03T11:57:23.130Z,13.79
2018-12-03T11:59:56.803Z,13.84
2018-12-03T12:02:28.944Z,14.07
2018-12-03T12:05:03.186Z,14.15
2018-12-03T12:07:34.262Z,14.16
2018-12-03T12:10:08.177Z,14.26
2018-12-03T12:12:39.662Z,14.16
2018-12-03T12:15:16.529Z,14.04
2018-12-03T12:17:47.617Z,14.09
2018-12-03T12:20:19.848Z,14.15
2018-12-03T12:22:51.795Z,14.20
2018-12-03T12:25:25.364Z,14.21
2018-12-03T12:27:56.812Z,14.14
2018-12-03T12:30:30.748Z,14.13
2018-12-03T12:33:00.611Z,14.10
2018-12-03T12:35:34.670Z,14.21
2018-12-03T12:38:04.644Z,14.37
2018-12-03T12:40:41.604Z,14.35
2018-12-03T12:43:13.051Z,14.20
2018-12-03T12:45:56.429Z,14.07
2018-12-03T12:48:28.110Z,13.93
2018-12-03T12:51:01.744Z,13.99
2018-12-03T12:53:33.369Z,13.93
2018-12-03T12:56:07.720Z,13.73
2018-12-03T12:58:37.427Z,13.67
2018-12-03T13:01:09.452Z,13.59
2018-12-03T13:03:40.729Z,13.70
2018-12-03T13:06:14.732Z,13.71
2018-12-03T13:08:46.297Z,13.71
2018-12-03T13:11:19.430Z,13.65
2018-12-03T13:13:50.748Z,13.52
2018-12-03T13:16:27.697Z,13.36
2018-12-03T13:18:58.968Z,13.35
2018-12-03T13:21:32.902Z,13.35
2018-12-03T13:24:04.108Z,13.42
2018-12-03T13:26:39.661Z,13.43
2018-12-03T13:31:38.301Z,13.57
2018-12-03T13:34:12.026Z,13.68
2018-12-03T13:36:45.700Z,13.72
2018-12-03T13:39:14.055Z,13.71
2018-12-03T13:41:47.240Z,13.46
2018-12-03T13:44:18.444Z,13.29
2018-12-03T13:46:50.580Z,13.07
2018-12-03T13:49:20.372Z,13.08
2018-12-03T13:51:54.400Z,13.16
2018-12-03T13:54:25.360Z,13.34
2018-12-03T13:56:59.352Z,13.51
2018-12-03T13:59:30.637Z,13.60
2018-12-03T14:02:04.201Z,13.61
2018-12-03T14:04:33.954Z,13.61
2018-12-03T14:07:37.116Z,13.51
2018-12-03T14:10:08.666Z,13.50
2018-12-03T14:12:49.098Z,13.41
2018-12-03T14:15:20.543Z,13.38
2018-12-03T14:18:15.069Z,13.25
2018-12-03T14:20:44.983Z,13.24
2018-12-03T14:23:20.099Z,13.12
2018-12-03T14:25:51.248Z,12.93
2018-12-03T14:28:28.238Z,12.81
2018-12-03T14:30:59.251Z,12.62
2018-12-03T14:33:32.583Z,12.44
2018-12-03T14:36:03.550Z,12.35
2018-12-03T14:38:35.694Z,12.26
2018-12-03T14:41:05.310Z,12.13
2018-12-03T14:43:39.186Z,12.02
2018-12-03T14:46:09.169Z,11.95
2018-12-03T14:48:43.010Z,12.01
2018-12-03T14:51:14.243Z,12.15
2018-12-03T14:53:46.304Z,12.16
2018-12-03T14:56:17.619Z,12.21
2018-12-03T14:58:51.574Z,12.26
2018-12-03T15:01:22.836Z,12.27
2018-12-03T15:03:55.015Z,12.24
2018-12-03T15:06:26.569Z,12.31
2018-12-03T15:09:03.376Z,12.26
2018-12-03T15:11:33.209Z,12.23
2018-12-03T15:14:06.772Z,12.13
2018-12-03T15:16:37.887Z,12.08
2018-12-03T15:19:11.844Z,11.95
2018-12-03T15:24:13.506Z,11.95
2018-12-03T15:26:50.974Z,11.87
2018-12-03T15:29:23.171Z,11.72
2018-12-03T15:31:55.241Z,11.70
2018-12-03T15:34:28.969Z,11.63
2018-12-03T15:37:02.648Z,11.60
2018-12-03T15:39:36.053Z,11.53
2018-12-03T15:42:09.349Z,11.33
2018-12-03T15:44:43.214Z,11.17
2018-12-03T15:47:16.454Z,11.03
2018-12-03T15:49:50.486Z,10.94
2018-12-03T15:52:23.723Z,10.90
2018-12-03T15:54:57.494Z,11.06
2018-12-03T15:57:31.097Z,11.07
2018-12-03T16:00:05.152Z,11.03
2018-12-03T16:02:37.437Z,10.95
2018-12-03T16:05:14.209Z,10.92
2018-12-03T16:07:51.091Z,10.97
2018-12-03T16:10:25.072Z,11.05
2018-12-03T16:12:58.980Z,11.17
2018-12-03T16:15:31.301Z,11.26
2018-12-03T16:18:05.315Z,11.27
2018-12-03T16:20:43.009Z,11.28
2018-12-03T16:23:16.776Z,11.27
2018-12-03T16:25:50.548Z,11.23
2018-12-03T16:28:24.086Z,11.17
2018-12-03T16:30:58.194Z,11.10
2018-12-03T16:33:30.378Z,11.10
2018-12-03T16:36:04.210Z,11.09
2018-12-03T16:38:38.009Z,11.07
2018-12-03T16:41:11.534Z,11.07
2018-12-03T16:43:45.190Z,11.05
2018-12-03T16:46:18.858Z,10.99
2018-12-03T16:48:52.524Z,10.96
2018-12-03T16:51:26.509Z,10.90
2018-12-03T16:53:59.997Z,10.84
2018-12-03T16:56:34.024Z,10.78
2018-12-03T16:59:07.597Z,10.74
2018-12-03T17:01:41.381Z,10.71
2018-12-03T17:04:11.487Z,10.85
2018-12-03T17:06:45.431Z,10.97
2018-12-03T17:11:43.842Z,11.28
2018-12-03T17:14:17.679Z,11.35
2018-12-03T17:16:51.057Z,11.41
2018-12-03T17:19:25.091Z,11.43
2018-12-03T17:23:12.935Z,11.47
2018-12-03T17:25:46.491Z,11.52
2018-12-03T17:28:16.387Z,11.50
2018-12-03T17:30:50.368Z,11.51
2018-12-03T17:33:20.328Z,11.40
2018-12-03T17:35:54.411Z,11.31
2018-12-03T17:38:25.639Z,11.23
2018-12-03T17:40:58.017Z,11.17
2018-12-03T17:43:29.255Z,11.13
2018-12-03T17:46:03.327Z,11.06
2018-12-03T17:48:34.916Z,11.05
2018-12-03T17:51:09.101Z,10.97
2018-12-03T17:53:39.005Z,11.08
2018-12-03T17:56:11.616Z,11.14
2018-12-03T17:58:41.523Z,11.08
2018-12-03T18:01:16.592Z,11.13
2018-12-03T18:03:47.747Z,11.23
2018-12-03T18:06:21.485Z,11.36
2018-12-03T18:08:52.574Z,11.43
2018-12-03T18:11:26.342Z,11.44
2018-12-03T18:13:57.725Z,11.41
2018-12-03T18:16:32.125Z,11.36
2018-12-03T18:19:01.895Z,11.33
2018-12-03T18:21:36.407Z,11.31
2018-12-03T18:24:08.473Z,11.35
2018-12-03T18:26:42.771Z,11.31
2018-12-03T18:31:43.317Z,11.17
2018-12-03T18:34:17.961Z,11.21
2018-12-03T18:36:49.572Z,11.18
2018-12-03T18:39:23.557Z,11.17
2018-12-03T18:42:00.302Z,11.28
2018-12-03T18:44:37.866Z,11.26
2018-12-03T18:47:12.327Z,11.33
2018-12-03T18:49:49.393Z,11.33
2018-12-03T18:52:24.250Z,11.43
2018-12-03T18:54:56.911Z,11.48
2018-12-03T18:57:31.538Z,11.46
2018-12-03T19:00:06.297Z,11.56
2018-12-03T19:02:42.371Z,11.66
2018-12-03T19:05:16.817Z,11.77
2018-12-03T19:07:51.145Z,11.75
2018-12-03T19:10:25.326Z,11.76
2018-12-03T19:13:00.367Z,11.69
2018-12-03T19:15:34.687Z,11.72
2018-12-03T19:18:08.945Z,11.68
2018-12-03T19:20:43.188Z,11.72
2018-12-03T19:23:17.744Z,11.65
2018-12-03T19:25:50.425Z,11.62
2018-12-03T19:28:25.055Z,11.61
2018-12-03T19:30:59.097Z,11.64
2018-12-03T19:33:31.912Z,11.76
2018-12-03T19:36:06.490Z,11.75
2018-12-03T19:38:41.190Z,11.76
2018-12-03T19:41:15.890Z,11.85
2018-12-03T19:43:50.445Z,11.82
2018-12-03T19:46:24.437Z,11.92
2018-12-03T19:48:59.899Z,11.85
2018-12-03T19:51:34.493Z,11.76
2018-12-03T19:54:08.433Z,11.65
2018-12-03T19:56:42.861Z,11.61
2018-12-03T20:01:47.588Z,11.51
2018-12-03T20:04:37.408Z,11.44
2018-12-03T20:07:10.208Z,11.51
2018-12-03T20:09:44.577Z,11.48
2018-12-03T20:12:17.239Z,11.45
2018-12-03T20:14:51.257Z,11.38
2018-12-03T20:17:31.951Z,11.25
2018-12-03T20:20:04.780Z,11.22
2018-12-03T20:22:53.850Z,11.24
2018-12-03T20:25:32.181Z,11.21
2018-12-03T20:28:13.810Z,11.25
2018-12-03T20:31:39.611Z,11.41
2018-12-03T20:34:26.597Z,11.43
2018-12-03T20:40:04.832Z,11.47
2018-12-03T20:42:41.615Z,11.50
2018-12-03T20:45:33.946Z,11.47
2018-12-03T20:48:08.617Z,11.40
2018-12-03T20:50:52.806Z,11.46
2018-12-03T20:53:28.764Z,11.45
2018-12-03T20:56:05.430Z,11.46
2018-12-03T20:58:40.186Z,11.42
2018-12-03T21:01:14.624Z,11.51
2018-12-03T21:03:53.574Z,11.53
2018-12-03T21:06:27.969Z,11.46
2018-12-03T21:09:02.151Z,11.55
2018-12-03T21:11:36.080Z,11.49
2018-12-03T21:14:09.075Z,11.49
2018-12-03T21:16:43.078Z,11.41
2018-12-03T21:19:16.863Z,11.38
2018-12-03T21:21:51.075Z,11.48
2018-12-03T21:24:25.365Z,11.53
2018-12-03T21:26:59.411Z,11.49
2018-12-03T21:32:02.652Z,11.51
2018-12-03T21:34:33.743Z,11.51
2018-12-03T21:37:12.299Z,11.52
2018-12-03T21:39:47.890Z,11.53
2018-12-03T21:42:18.618Z,11.49
2018-12-03T21:44:50.235Z,11.54
2018-12-03T21:47:23.972Z,11.47
2018-12-03T21:49:55.737Z,11.50
2018-12-03T21:52:28.407Z,11.49
2018-12-03T21:54:58.355Z,11.47
2018-12-03T21:57:32.449Z,11.42
2018-12-03T22:00:01.692Z,11.44
2018-12-03T22:02:35.515Z,11.39
2018-12-03T22:05:05.396Z,10.91
2018-12-03T22:07:37.246Z,10.38
2018-12-03T22:10:07.113Z,9.97
2018-12-03T22:12:44.194Z,9.80
2018-12-03T22:15:15.207Z,9.62
2018-12-03T22:17:49.296Z,9.57
2018-12-03T22:20:21.056Z,9.52
2018-12-03T22:22:55.213Z,9.48
2018-12-03T22:25:26.435Z,9.45
2018-12-03T22:28:02.680Z,9.50
2018-12-03T22:30:34.589Z,9.52
2018-12-03T22:33:08.551Z,9.54
2018-12-03T22:35:39.643Z,9.61
2018-12-03T22:38:14.085Z,9.66
2018-12-03T22:40:43.998Z,9.73
2018-12-03T22:43:17.418Z,9.89
2018-12-03T22:45:48.556Z,9.59
2018-12-03T22:48:20.645Z,9.39
2018-12-03T22:50:51.878Z,9.18
2018-12-03T22:53:25.887Z,8.97
2018-12-03T22:55:56.814Z,8.87
2018-12-03T22:58:30.763Z,8.45
2018-12-03T23:01:10.584Z,8.14
2018-12-03T23:03:44.543Z,7.98
2018-12-03T23:06:15.960Z,7.90
2018-12-03T23:08:49.312Z,7.84
2018-12-03T23:11:20.714Z,7.80
2018-12-03T23:13:54.599Z,7.77
2018-12-03T23:16:25.593Z,7.69
2018-12-03T23:18:58.049Z,7.68
2018-12-03T23:21:29.550Z,7.74
2018-12-03T23:24:02.839Z,7.74
2018-12-03T23:26:32.638Z,7.71
2018-12-03T23:29:06.415Z,7.67
2018-12-03T23:31:37.728Z,7.69
2018-12-03T23:34:11.593Z,7.63
2018-12-03T23:36:42.568Z,7.56
2018-12-03T23:39:15.918Z,7.49
2018-12-03T23:41:46.849Z,7.50
2018-12-03T23:44:18.897Z,7.59
2018-12-03T23:46:50.203Z,7.62
2018-12-03T23:49:23.417Z,7.69
2018-12-03T23:51:54.434Z,7.76
2018-12-03T23:54:27.693Z,7.78
2018-12-03T23:56:58.833Z,7.83
2018-12-03T23:59:32.897Z,7.85
